createdAt,value
2019-04-28T00:01:06.453Z,10.94
2019-04-28T00:03:37.604Z,10.93
2019-04-28T00:06:10.971Z,10.92
2019-04-28T00:08:42.901Z,10.93
2019-04-28T00:11:14.240Z,10.87
2019-04-28T00:13:45.612Z,10.91
2019-04-28T00:16:16.898Z,10.89
2019-04-28T00:18:48.194Z,10.88
2019-04-28T00:21:38.355Z,10.88
2019-04-28T00:24:37.626Z,10.86
2019-04-28T00:27:11.626Z,10.86
2019-04-28T00:29:46.057Z,10.87
2019-04-28T00:32:16.066Z,10.90
2019-04-28T00:34:47.350Z,10.90
2019-04-28T00:37:31.939Z,10.90
2019-04-28T00:40:05.029Z,10.89
2019-04-28T00:42:36.398Z,10.90
2019-04-28T00:45:09.356Z,10.88
2019-04-28T00:47:42.764Z,10.89
2019-04-28T00:50:14.319Z,10.90
2019-04-28T00:52:45.497Z,10.92
2019-04-28T00:55:16.662Z,10.93
2019-04-28T00:57:47.827Z,10.93
2019-04-28T01:00:21.523Z,10.89
2019-04-28T01:02:53.713Z,10.93
2019-04-28T01:05:25.102Z,10.85
2019-04-28T01:07:56.363Z,10.90
2019-04-28T01:10:28.074Z,10.89
2019-04-28T01:12:59.317Z,10.87
2019-04-28T01:16:09.362Z,10.86
2019-04-28T01:18:46.250Z,10.85
2019-04-28T01:21:17.466Z,10.83
2019-04-28T01:23:50.146Z,10.80
2019-04-28T01:26:21.611Z,10.78
2019-04-28T01:28:52.828Z,10.73
2019-04-28T01:31:49.457Z,10.72
2019-04-28T01:34:22.499Z,10.70
2019-04-28T01:36:53.691Z,10.67
2019-04-28T01:39:24.898Z,10.65
2019-04-28T01:41:56.092Z,10.62
2019-04-28T01:44:27.485Z,10.61
2019-04-28T01:46:59.634Z,10.59
2019-04-28T01:49:31.562Z,10.60
2019-04-28T01:52:02.748Z,10.60
2019-04-28T01:54:33.951Z,10.57
2019-04-28T01:57:05.183Z,10.57
2019-04-28T01:59:36.386Z,10.55
2019-04-28T02:02:07.677Z,10.55
2019-04-28T02:04:40.156Z,10.57
2019-04-28T02:07:11.720Z,10.58
2019-04-28T02:09:42.910Z,10.58
2019-04-28T02:12:14.109Z,10.56
2019-04-28T02:14:45.317Z,10.54
2019-04-28T02:17:16.475Z,10.50
2019-04-28T02:19:47.668Z,10.48
2019-04-28T02:22:31.768Z,10.45
2019-04-28T02:25:03.175Z,10.42
2019-04-28T02:27:34.456Z,10.39
2019-04-28T02:30:10.957Z,10.36
2019-04-28T02:32:41.229Z,10.36
2019-04-28T02:35:12.478Z,10.34
2019-04-28T02:37:43.698Z,10.34
2019-04-28T02:40:14.979Z,10.34
2019-04-28T02:42:46.220Z,10.34
2019-04-28T02:45:22.005Z,10.35
2019-04-28T02:47:56.431Z,10.35
2019-04-28T02:50:43.912Z,10.37
2019-04-28T02:53:23.455Z,10.39
2019-04-28T02:55:54.694Z,10.41
2019-04-28T02:58:25.846Z,10.45
2019-04-28T03:01:06.306Z,10.48
2019-04-28T03:03:30.760Z,10.47
2019-04-28T03:06:03.249Z,10.47
2019-04-28T03:08:34.533Z,10.48
2019-04-28T03:11:06.840Z,10.49
2019-04-28T03:13:41.090Z,10.50
2019-04-28T03:16:13.780Z,10.47
2019-04-28T03:18:45.058Z,10.46
2019-04-28T03:21:16.410Z,10.46
2019-04-28T03:23:47.652Z,10.49
2019-04-28T03:26:34.760Z,10.49
2019-04-28T03:29:34.155Z,10.50
2019-04-28T03:32:40.174Z,10.48
2019-04-28T03:35:03.102Z,10.45
2019-04-28T03:37:34.180Z,10.46
2019-04-28T03:40:05.712Z,10.45
2019-04-28T03:42:36.907Z,10.45
2019-04-28T03:45:14.539Z,10.46
2019-04-28T03:47:45.734Z,10.45
2019-04-28T03:50:17.034Z,10.45
2019-04-28T03:52:51.014Z,10.39
2019-04-28T03:55:21.447Z,10.35
2019-04-28T03:57:52.775Z,10.31
2019-04-28T04:00:23.914Z,10.33
2019-04-28T04:02:56.835Z,10.33
2019-04-28T04:05:30.426Z,10.31
2019-04-28T04:08:01.129Z,10.28
2019-04-28T04:10:51.405Z,10.25
2019-04-28T04:13:32.694Z,10.25
2019-04-28T04:16:20.793Z,10.24
2019-04-28T04:18:53.995Z,10.17
2019-04-28T04:21:26.454Z,10.12
2019-04-28T04:23:57.707Z,10.12
2019-04-28T04:26:31.026Z,10.08
2019-04-28T04:29:01.831Z,10.08
2019-04-28T04:31:33.015Z,10.16
2019-04-28T04:34:04.214Z,10.14
2019-04-28T04:36:35.432Z,10.09
2019-04-28T04:39:10.604Z,10.08
2019-04-28T04:41:43.455Z,10.09
2019-04-28T04:44:13.632Z,10.08
2019-04-28T04:46:44.824Z,10.08
2019-04-28T04:49:16.034Z,10.13
2019-04-28T04:51:47.245Z,10.12
2019-04-28T04:54:20.448Z,10.10
2019-04-28T04:56:51.376Z,10.07
2019-04-28T04:59:22.609Z,10.06
2019-04-28T05:02:26.736Z,10.10
2019-04-28T05:04:55.562Z,10.13
2019-04-28T05:07:26.764Z,10.12
2019-04-28T05:09:59.539Z,10.15
2019-04-28T05:12:30.904Z,10.13
2019-04-28T05:15:02.076Z,10.12
2019-04-28T05:17:34.379Z,10.12
2019-04-28T05:20:06.741Z,10.13
2019-04-28T05:22:43.097Z,10.13
2019-04-28T05:25:20.428Z,10.15
2019-04-28T05:27:54.580Z,10.13
2019-04-28T05:30:24.600Z,10.15
2019-04-28T05:32:57.325Z,10.15
2019-04-28T05:35:29.760Z,10.18
2019-04-28T05:38:00.984Z,10.22
2019-04-28T05:40:32.203Z,10.26
2019-04-28T05:43:03.402Z,10.30
2019-04-28T05:45:34.608Z,10.33
2019-04-28T05:48:08.752Z,10.35
2019-04-28T05:50:50.372Z,10.37
2019-04-28T05:53:36.863Z,10.38
2019-04-28T05:56:36.164Z,10.36
2019-04-28T05:59:12.377Z,10.36
2019-04-28T06:02:01.916Z,10.31
2019-04-28T06:04:33.162Z,10.31
2019-04-28T06:07:14.942Z,10.31
2019-04-28T06:09:50.094Z,10.36
2019-04-28T06:12:21.613Z,10.38
2019-04-28T06:14:52.992Z,10.40
2019-04-28T06:17:24.126Z,10.42
2019-04-28T06:19:55.312Z,10.43
2019-04-28T06:22:27.488Z,10.41
2019-04-28T06:24:58.828Z,10.40
2019-04-28T06:27:32.567Z,10.40
2019-04-28T06:30:04.034Z,10.40
2019-04-28T06:32:35.572Z,10.38
2019-04-28T06:35:06.797Z,10.36
2019-04-28T06:37:38.082Z,10.40
2019-04-28T06:40:09.354Z,10.39
2019-04-28T06:42:40.632Z,10.47
2019-04-28T06:45:11.922Z,10.52
2019-04-28T06:47:43.127Z,10.54
2019-04-28T06:50:14.501Z,10.57
2019-04-28T06:52:45.743Z,10.61
2019-04-28T06:55:17.013Z,10.68
2019-04-28T06:57:48.237Z,10.72
2019-04-28T07:00:19.562Z,10.75
2019-04-28T07:02:50.769Z,10.81
2019-04-28T07:05:21.950Z,10.85
2019-04-28T07:07:53.144Z,10.88
2019-04-28T07:10:24.401Z,10.90
2019-04-28T07:12:55.657Z,10.93
2019-04-28T07:15:26.919Z,10.99
2019-04-28T07:17:58.100Z,11.04
2019-04-28T07:20:54.313Z,11.09
2019-04-28T07:23:25.659Z,11.16
2019-04-28T07:25:57.074Z,11.22
2019-04-28T07:28:28.293Z,11.28
2019-04-28T07:30:59.611Z,11.34
2019-04-28T07:33:36.047Z,11.40
2019-04-28T07:36:03.830Z,11.41
2019-04-28T07:38:35.082Z,11.43
2019-04-28T07:41:06.636Z,11.47
2019-04-28T07:43:37.794Z,11.49
2019-04-28T07:46:09.102Z,11.50
2019-04-28T07:48:40.283Z,11.49
2019-04-28T07:51:11.483Z,11.52
2019-04-28T07:54:06.429Z,11.51
2019-04-28T07:56:37.770Z,11.50
2019-04-28T07:59:09.095Z,11.51
2019-04-28T08:01:40.315Z,11.54
2019-04-28T08:04:11.614Z,11.59
2019-04-28T08:06:42.879Z,11.65
2019-04-28T08:09:16.093Z,11.69
2019-04-28T08:11:47.317Z,11.72
2019-04-28T08:14:19.864Z,11.72
2019-04-28T08:16:51.268Z,11.74
2019-04-28T08:19:22.533Z,11.77
2019-04-28T08:21:53.745Z,11.77
2019-04-28T08:24:24.977Z,11.81
2019-04-28T08:26:56.166Z,11.87
2019-04-28T08:29:27.317Z,11.90
2019-04-28T08:32:15.374Z,11.95
2019-04-28T08:34:46.505Z,12.02
2019-04-28T08:37:17.710Z,12.10
2019-04-28T08:39:48.972Z,12.17
2019-04-28T08:42:20.175Z,12.27
2019-04-28T08:44:51.434Z,12.52
2019-04-28T08:47:22.717Z,12.52
2019-04-28T08:49:54.046Z,12.66
2019-04-28T08:52:25.254Z,12.78
2019-04-28T08:54:56.525Z,12.86
2019-04-28T08:57:28.118Z,12.92
2019-04-28T08:59:59.347Z,12.95
2019-04-28T09:02:30.630Z,12.94
2019-04-28T09:05:01.807Z,12.96
2019-04-28T09:07:33.120Z,13.00
2019-04-28T09:10:06.320Z,13.07
2019-04-28T09:12:37.569Z,13.15
2019-04-28T09:15:09.127Z,13.25
2019-04-28T09:17:40.475Z,13.29
2019-04-28T09:20:11.675Z,13.31
2019-04-28T09:22:42.939Z,13.28
2019-04-28T09:25:14.232Z,13.26
2019-04-28T09:27:45.401Z,13.23
2019-04-28T09:30:16.801Z,13.18
2019-04-28T09:32:48.092Z,13.18
2019-04-28T09:35:19.364Z,13.21
2019-04-28T09:37:50.659Z,13.24
2019-04-28T09:40:21.977Z,13.25
2019-04-28T09:43:14.963Z,13.23
2019-04-28T09:45:54.974Z,13.26
2019-04-28T09:48:26.166Z,13.31
2019-04-28T09:50:57.366Z,13.37
2019-04-28T09:53:28.638Z,13.45
2019-04-28T09:55:59.829Z,13.50
2019-04-28T09:58:31.148Z,13.59
2019-04-28T10:01:02.501Z,13.67
2019-04-28T10:03:33.740Z,13.71
2019-04-28T10:06:05.055Z,13.73
2019-04-28T10:08:36.724Z,13.76
2019-04-28T10:11:08.180Z,13.82
2019-04-28T10:13:39.461Z,13.91
2019-04-28T10:16:10.661Z,14.00
2019-04-28T10:18:41.908Z,14.08
2019-04-28T10:21:13.086Z,14.18
2019-04-28T10:23:45.824Z,14.20
2019-04-28T10:26:17.056Z,14.23
2019-04-28T10:28:48.290Z,14.25
2019-04-28T10:31:19.532Z,14.23
2019-04-28T10:33:54.923Z,14.18
2019-04-28T10:36:27.748Z,14.11
2019-04-28T10:39:18.988Z,14.08
2019-04-28T10:41:50.516Z,14.07
2019-04-28T10:44:22.440Z,14.08
2019-04-28T10:46:53.623Z,14.14
2019-04-28T10:49:24.806Z,14.24
2019-04-28T10:51:59.350Z,14.26
2019-04-28T10:54:30.025Z,14.31
2019-04-28T10:57:01.285Z,14.41
2019-04-28T10:59:32.467Z,14.54
2019-04-28T11:02:03.642Z,14.68
2019-04-28T11:04:52.910Z,14.82
2019-04-28T11:07:24.191Z,14.93
2019-04-28T11:10:01.285Z,14.99
2019-04-28T11:12:32.660Z,14.98
2019-04-28T11:15:05.844Z,14.95
2019-04-28T11:17:37.090Z,14.87
2019-04-28T11:20:08.414Z,14.92
2019-04-28T11:22:39.643Z,14.98
2019-04-28T11:25:10.902Z,15.05
2019-04-28T11:27:42.239Z,15.15
2019-04-28T11:30:14.271Z,15.26
2019-04-28T11:32:55.903Z,15.33
2019-04-28T11:35:29.105Z,15.49
2019-04-28T11:38:00.361Z,15.56
2019-04-28T11:40:31.672Z,15.57
2019-04-28T11:43:02.860Z,15.55
2019-04-28T11:45:34.076Z,15.48
2019-04-28T11:48:05.276Z,15.43
2019-04-28T11:50:36.544Z,15.38
2019-04-28T11:53:07.846Z,15.37
2019-04-28T11:55:39.085Z,15.34
2019-04-28T11:58:10.325Z,15.32
2019-04-28T12:00:41.806Z,15.29
2019-04-28T12:03:13.193Z,15.29
2019-04-28T12:05:47.400Z,15.32
2019-04-28T12:08:18.779Z,15.34
2019-04-28T12:11:00.767Z,15.42
2019-04-28T12:13:53.711Z,15.53
2019-04-28T12:16:36.154Z,15.68
2019-04-28T12:19:14.596Z,15.94
2019-04-28T12:21:45.796Z,16.16
2019-04-28T12:24:17.011Z,16.32
2019-04-28T12:26:48.241Z,16.46
2019-04-28T12:29:19.390Z,16.71
2019-04-28T12:31:50.647Z,16.98
2019-04-28T12:34:21.944Z,17.22
2019-04-28T12:36:53.147Z,17.45
2019-04-28T12:39:24.336Z,17.65
2019-04-28T12:41:55.584Z,17.97
2019-04-28T12:44:26.776Z,18.48
2019-04-28T12:46:57.975Z,19.12
2019-04-28T12:49:34.166Z,19.85
2019-04-28T12:52:06.869Z,20.33
2019-04-28T12:54:39.836Z,20.52
2019-04-28T12:57:10.992Z,20.71
2019-04-28T12:59:53.103Z,20.56
2019-04-28T13:02:42.083Z,20.28
2019-04-28T13:05:14.414Z,19.90
2019-04-28T13:07:45.622Z,19.39
2019-04-28T13:10:16.887Z,18.97
2019-04-28T13:12:48.118Z,18.65
2019-04-28T13:15:19.387Z,18.33
2019-04-28T13:17:50.624Z,18.08
2019-04-28T13:20:21.868Z,17.85
2019-04-28T13:22:53.158Z,17.57
2019-04-28T13:25:24.423Z,17.34
2019-04-28T13:27:55.681Z,17.21
2019-04-28T13:30:26.934Z,17.15
2019-04-28T13:32:58.117Z,17.14
2019-04-28T13:35:29.353Z,17.10
2019-04-28T13:38:00.636Z,17.04
2019-04-28T13:40:34.033Z,16.98
2019-04-28T13:43:06.418Z,16.94
2019-04-28T13:45:37.655Z,16.90
2019-04-28T13:48:08.910Z,16.82
2019-04-28T13:50:40.172Z,16.76
2019-04-28T13:53:11.432Z,16.73
2019-04-28T13:55:59.800Z,16.71
2019-04-28T13:58:36.532Z,16.71
2019-04-28T14:01:15.248Z,16.68
2019-04-28T14:04:05.386Z,16.65
2019-04-28T14:06:40.650Z,16.59
2019-04-28T14:09:15.826Z,16.56
2019-04-28T14:11:47.722Z,16.54
2019-04-28T14:14:19.029Z,16.56
2019-04-28T14:16:50.137Z,16.66
2019-04-28T14:19:21.351Z,16.76
2019-04-28T14:21:52.531Z,16.82
2019-04-28T14:24:23.755Z,16.84
2019-04-28T14:26:54.979Z,16.84
2019-04-28T14:29:26.296Z,16.83
2019-04-28T14:31:57.583Z,16.89
2019-04-28T14:34:28.807Z,17.08
2019-04-28T14:37:00.029Z,17.36
2019-04-28T14:39:32.327Z,17.75
2019-04-28T14:42:03.685Z,18.08
2019-04-28T14:44:34.970Z,18.33
2019-04-28T14:47:07.272Z,18.61
2019-04-28T14:49:38.469Z,18.82
2019-04-28T14:52:10.330Z,19.05
2019-04-28T14:54:42.883Z,19.35
2019-04-28T14:57:13.986Z,19.77
2019-04-28T14:59:45.179Z,20.18
2019-04-28T15:02:44.206Z,20.53
2019-04-28T15:05:43.791Z,20.68
2019-04-28T15:08:39.861Z,21.08
2019-04-28T15:11:21.288Z,21.10
2019-04-28T15:13:55.254Z,20.78
2019-04-28T15:16:25.380Z,20.48
2019-04-28T15:18:57.690Z,20.46
2019-04-28T15:21:28.875Z,20.72
2019-04-28T15:24:00.101Z,21.32
2019-04-28T15:26:31.303Z,22.00
2019-04-28T15:29:02.501Z,22.55
2019-04-28T15:31:33.775Z,23.07
2019-04-28T15:34:04.943Z,23.50
2019-04-28T15:36:36.135Z,23.78
2019-04-28T15:39:09.200Z,23.77
2019-04-28T15:41:40.599Z,23.77
2019-04-28T15:44:11.844Z,23.63
2019-04-28T15:46:43.189Z,23.48
2019-04-28T15:49:15.428Z,23.16
2019-04-28T15:51:46.633Z,22.85
2019-04-28T15:54:17.853Z,22.60
2019-04-28T15:56:50.704Z,22.38
2019-04-28T15:59:23.869Z,22.10
2019-04-28T16:01:55.141Z,21.89
2019-04-28T16:04:26.434Z,21.80
2019-04-28T16:06:57.594Z,21.70
2019-04-28T16:09:28.792Z,21.56
2019-04-28T16:11:59.961Z,21.39
2019-04-28T16:14:31.120Z,21.24
2019-04-28T16:17:02.332Z,21.10
2019-04-28T16:19:33.523Z,20.79
2019-04-28T16:22:04.881Z,20.50
2019-04-28T16:24:36.212Z,20.25
2019-04-28T16:27:09.053Z,20.10
2019-04-28T16:29:40.241Z,19.94
2019-04-28T16:32:11.504Z,19.81
2019-04-28T16:34:42.780Z,19.67
2019-04-28T16:37:13.958Z,19.49
2019-04-28T16:39:45.184Z,19.26
2019-04-28T16:42:24.696Z,19.03
2019-04-28T16:44:59.433Z,18.87
2019-04-28T16:47:38.709Z,18.72
2019-04-28T16:50:10.188Z,18.52
2019-04-28T16:52:41.452Z,18.39
2019-04-28T16:55:20.269Z,18.23
2019-04-28T16:58:18.556Z,18.12
2019-04-28T17:01:08.839Z,17.93
2019-04-28T17:03:41.735Z,17.93
2019-04-28T17:06:13.012Z,17.80
2019-04-28T17:08:44.674Z,17.62
2019-04-28T17:11:17.190Z,17.46
2019-04-28T17:13:48.404Z,17.35
2019-04-28T17:16:19.640Z,17.28
2019-04-28T17:18:50.825Z,17.23
2019-04-28T17:21:22.178Z,17.13
2019-04-28T17:26:36.669Z,16.93
2019-04-28T17:29:07.900Z,16.77
2019-04-28T17:31:39.241Z,16.68
2019-04-28T17:34:10.642Z,16.64
2019-04-28T17:36:44.356Z,16.61
2019-04-28T17:39:19.022Z,16.59
2019-04-28T17:41:50.375Z,16.60
2019-04-28T17:44:25.532Z,16.57
2019-04-28T17:46:57.530Z,16.53
2019-04-28T17:49:33.956Z,16.46
2019-04-28T17:52:06.425Z,16.39
2019-04-28T17:54:37.835Z,16.32
2019-04-28T17:57:09.224Z,16.27
2019-04-28T17:59:40.462Z,16.20
2019-04-28T18:02:29.205Z,16.12
2019-04-28T18:05:26.612Z,16.02
2019-04-28T18:08:01.619Z,15.93
2019-04-28T18:10:33.650Z,15.86
2019-04-28T18:13:05.438Z,15.78
2019-04-28T18:15:46.957Z,15.72
2019-04-28T18:18:29.428Z,15.64
2019-04-28T18:21:00.737Z,15.59
2019-04-28T18:23:32.324Z,15.55
2019-04-28T18:26:03.658Z,15.50
2019-04-28T18:28:35.136Z,15.46
2019-04-28T18:31:25.511Z,15.41
2019-04-28T18:34:22.774Z,15.35
2019-04-28T18:37:04.292Z,15.30
2019-04-28T18:40:03.955Z,15.27
2019-04-28T18:43:00.005Z,15.22
2019-04-28T18:45:31.498Z,15.18
2019-04-28T18:48:02.765Z,15.13
2019-04-28T18:50:34.115Z,15.09
2019-04-28T18:53:05.517Z,15.04
2019-04-28T18:55:36.883Z,15.00
2019-04-28T18:58:08.165Z,14.97
2019-04-28T19:00:41.575Z,14.92
2019-04-28T19:03:14.183Z,14.90
2019-04-28T19:05:47.322Z,14.87
2019-04-28T19:08:49.472Z,14.84
2019-04-28T19:11:29.724Z,14.82
2019-04-28T19:14:06.071Z,14.80
2019-04-28T19:16:56.309Z,14.75
2019-04-28T19:19:28.789Z,14.74
2019-04-28T19:22:00.284Z,14.67
2019-04-28T19:24:31.761Z,14.63
2019-04-28T19:27:03.088Z,14.60
2019-04-28T19:29:34.631Z,14.57
2019-04-28T19:32:06.301Z,14.56
2019-04-28T19:34:37.782Z,14.54
2019-04-28T19:37:09.063Z,14.53
2019-04-28T19:39:40.931Z,14.52
2019-04-28T19:42:12.393Z,14.51
2019-04-28T19:44:43.894Z,14.49
2019-04-28T19:47:15.265Z,14.46
2019-04-28T19:49:46.869Z,14.44
2019-04-28T19:52:18.336Z,14.40
2019-04-28T19:55:23.919Z,14.38
2019-04-28T19:58:14.431Z,14.35
2019-04-28T20:01:10.891Z,14.31
2019-04-28T20:03:42.308Z,14.27
2019-04-28T20:06:13.613Z,14.22
2019-04-28T20:08:44.935Z,14.17
2019-04-28T20:11:16.351Z,14.15
2019-04-28T20:13:47.678Z,14.09
2019-04-28T20:16:19.008Z,14.03
2019-04-28T20:18:50.287Z,13.99
2019-04-28T20:21:22.655Z,13.96
2019-04-28T20:23:54.072Z,13.92
2019-04-28T20:26:25.426Z,13.86
2019-04-28T20:28:56.699Z,13.82
2019-04-28T20:31:27.978Z,13.79
2019-04-28T20:33:59.204Z,13.77
2019-04-28T20:36:51.870Z,13.75
2019-04-28T20:39:28.136Z,13.74
2019-04-28T20:42:18.507Z,13.72
2019-04-28T20:44:50.266Z,13.73
2019-04-28T20:47:21.568Z,13.72
2019-04-28T20:49:52.873Z,13.72
2019-04-28T20:52:24.131Z,13.70
2019-04-28T20:54:56.709Z,13.68
2019-04-28T20:57:30.849Z,13.64
2019-04-28T21:00:02.250Z,13.61
2019-04-28T21:02:34.834Z,13.58
2019-04-28T21:05:06.885Z,13.52
2019-04-28T21:07:38.293Z,13.47
2019-04-28T21:10:09.690Z,13.43
2019-04-28T21:12:41.018Z,13.42
2019-04-28T21:15:12.712Z,13.42
2019-04-28T21:17:44.028Z,13.40
2019-04-28T21:20:15.465Z,13.40
2019-04-28T21:22:46.734Z,13.39
2019-04-28T21:25:18.149Z,13.39
2019-04-28T21:27:49.473Z,13.39
2019-04-28T21:30:20.809Z,13.37
2019-04-28T21:32:52.109Z,13.34
2019-04-28T21:35:23.446Z,13.33
2019-04-28T21:37:54.769Z,13.32
2019-04-28T21:40:26.921Z,13.31
2019-04-28T21:43:20.410Z,13.29
2019-04-28T21:46:08.615Z,13.29
2019-04-28T21:48:51.868Z,13.29
2019-04-28T21:51:23.102Z,13.25
2019-04-28T21:53:54.348Z,13.25
2019-04-28T21:56:26.651Z,13.25
2019-04-28T21:58:57.918Z,13.23
2019-04-28T22:01:29.282Z,13.21
2019-04-28T22:04:00.833Z,13.20
2019-04-28T22:06:32.199Z,13.20
2019-04-28T22:09:04.962Z,13.21
2019-04-28T22:11:38.189Z,13.20
2019-04-28T22:14:09.777Z,13.17
2019-04-28T22:16:41.197Z,13.17
2019-04-28T22:19:12.463Z,13.17
2019-04-28T22:21:43.732Z,13.14
2019-04-28T22:24:42.888Z,13.13
2019-04-28T22:27:17.155Z,13.11
2019-04-28T22:29:48.390Z,13.07
2019-04-28T22:32:19.854Z,13.05
2019-04-28T22:34:51.130Z,13.03
2019-04-28T22:37:22.342Z,13.00
2019-04-28T22:39:54.704Z,12.96
2019-04-28T22:42:26.004Z,12.93
2019-04-28T22:44:57.259Z,12.90
2019-04-28T22:47:32.724Z,12.88
2019-04-28T22:50:07.095Z,12.81
2019-04-28T22:52:39.118Z,12.86
2019-04-28T22:55:18.956Z,12.83
2019-04-28T22:57:59.621Z,12.81
2019-04-28T23:00:49.102Z,12.77
2019-04-28T23:03:45.472Z,12.74
2019-04-28T23:06:16.913Z,12.72
2019-04-28T23:08:48.122Z,12.68
2019-04-28T23:11:19.437Z,12.67
2019-04-28T23:13:51.754Z,12.65
2019-04-28T23:16:23.228Z,12.65
2019-04-28T23:18:54.521Z,12.65
2019-04-28T23:21:34.646Z,12.65
2019-04-28T23:24:06.748Z,12.64
2019-04-28T23:26:39.257Z,12.63
2019-04-28T23:29:10.695Z,12.63
2019-04-28T23:31:42.002Z,12.62
2019-04-28T23:34:13.342Z,12.63
2019-04-28T23:36:44.596Z,12.63
2019-04-28T23:39:15.870Z,12.60
2019-04-28T23:42:08.733Z,12.58
2019-04-28T23:44:40.064Z,12.57
2019-04-28T23:47:11.426Z,12.54
2019-04-28T23:49:42.617Z,12.53
2019-04-28T23:52:32.017Z,12.50
2019-04-28T23:55:04.825Z,12.48
2019-04-28T23:57:36.069Z,12.43
